SUSQUEDA - St. MARTÍ SACALM (La Selva)





Hora UTC 02:05
Temperatura 6.3 ºC
Humedad 99.1 %
Presión 1013.7 hPa
Pluja 0.4 mm
Velocidad viento 4.1 km/h
Dirección viento NE
Radiación solar 0.1 W/m²

Datos diarios 2024-04-18



Hora UTC (invierno +1h; verano +2h)
Temperatura (ºC) Humedad (%) Presión (hPa) Velocidad viento (km/h) Precipitación (mm) Radiación solar (W/m²)
Hora UTC Aire Humedad Presión Vel. Dir. Vel. Max Dir. Intent. máx 5 min. Rad. Sol.
00:05 6.8 98.4 1014.6 4.1 N 4.1 NNE 0.0 0.1
00:10 6.7 98.4 1014.5 5.0 NNE 8.5 NE 0.0 0.1
00:15 6.6 98.3 1014.5 9.1 NNE 13.8 NNE 0.0 0.1
00:20 6.5 98.5 1014.5 8.0 NNE 13.4 N 0.0 0.1
00:25 6.5 98.6 1014.4 6.5 NNE 12.0 NNE 0.0 0.1
00:30 6.4 98.6 1014.4 7.5 NNE 11.3 NNE 0.0 0.1
00:35 6.3 98.6 1014.4 7.6 NNE 15.9 NNE 0.1 0.1
00:40 6.3 98.7 1014.4 5.3 NE 9.2 NE 0.1 0.1
00:45 6.3 98.7 1014.3 5.1 NNE 8.1 NNE 0.1 0.1
00:50 6.3 98.7 1014.3 8.0 NNE 9.9 NNE 0.0 0.1
00:55 6.3 98.8 1014.2 5.8 NNE 8.8 NNE 0.0 0.1
01:00 6.3 98.9 1014.2 8.1 NNE 12.4 NNE 0.0 0.1
01:05 6.4 98.9 1014.1 6.1 NNE 11.0 NNE 0.0 0.1
01:10 6.3 98.8 1014.1 8.0 NNE 12.4 NNE 0.0 0.1
01:15 6.3 98.9 1014.1 6.7 NNE 12.7 NNE 0.0 0.1
01:20 6.3 98.9 1014.0 6.0 NE 8.8 NE 0.0 0.1
01:25 6.3 99.0 1014.0 6.4 NNE 11.3 NNE 0.0 0.1
01:30 6.3 99.0 1014.0 6.5 NE 9.9 NE 0.0 0.1
01:35 6.3 99.0 1014.0 7.0 NNE 10.3 NNE 0.0 0.1
01:40 6.3 99.0 1013.9 6.0 NE 10.3 ENE 0.0 0.1
01:45 6.3 99.0 1013.9 6.2 NE 9.9 NE 0.0 0.1
01:50 6.3 99.0 1013.8 5.5 NE 8.5 NE 0.1 0.1
01:55 6.3 99.0 1013.8 5.7 NE 9.5 NE 0.0 0.1
02:00 6.3 99.1 1013.7 5.7 NE 8.1 NE 0.0 0.1
02:05 6.3 99.1 1013.7 4.1 NE 7.1 ENE 0.0 0.1
Máxima 6.8 99.1 1014.6 9.1 NNE 15.9 NNE 0.1 0.1
Mínima 6.2 98.3 1013.7
Total 0.4